sensor_id;sensor_type;location;lat;lon;timestamp;P1;durP1;ratioP1;P2;durP2;ratioP2
32864;SDS011;19219;44.500;11.188;2023-02-26T00:00:16;68.65;;;36.50;;
32864;SDS011;19219;44.500;11.188;2023-02-26T00:02:45;76.40;;;36.72;;
32864;SDS011;19219;44.500;11.188;2023-02-26T00:05:13;74.13;;;36.40;;
32864;SDS011;19219;44.500;11.188;2023-02-26T00:07:40;71.70;;;35.75;;
32864;SDS011;19219;44.500;11.188;2023-02-26T00:10:07;68.50;;;35.92;;
32864;SDS011;19219;44.500;11.188;2023-02-26T00:12:34;63.92;;;32.28;;
32864;SDS011;19219;44.500;11.188;2023-02-26T00:15:00;73.43;;;35.35;;
32864;SDS011;19219;44.500;11.188;2023-02-26T00:20:26;71.47;;;34.90;;
32864;SDS011;19219;44.500;11.188;2023-02-26T00:22:52;67.03;;;35.15;;
32864;SDS011;19219;44.500;11.188;2023-02-26T00:25:18;72.25;;;34.88;;
32864;SDS011;19219;44.500;11.188;2023-02-26T00:27:44;70.43;;;33.80;;
32864;SDS011;19219;44.500;11.188;2023-02-26T00:30:10;68.80;;;35.92;;
32864;SDS011;19219;44.500;11.188;2023-02-26T00:32:36;67.82;;;33.20;;
32864;SDS011;19219;44.500;11.188;2023-02-26T00:35:04;60.15;;;29.77;;
32864;SDS011;19219;44.500;11.188;2023-02-26T00:42:47;71.97;;;33.70;;
32864;SDS011;19219;44.500;11.188;2023-02-26T00:45:13;65.78;;;32.67;;
32864;SDS011;19219;44.500;11.188;2023-02-26T00:50:24;77.25;;;36.60;;
32864;SDS011;19219;44.500;11.188;2023-02-26T00:53:07;70.60;;;35.55;;
32864;SDS011;19219;44.500;11.188;2023-02-26T00:55:40;69.68;;;35.28;;
32864;SDS011;19219;44.500;11.188;2023-02-26T00:58:05;66.68;;;33.83;;
32864;SDS011;19219;44.500;11.188;2023-02-26T01:00:31;70.00;;;34.25;;
32864;SDS011;19219;44.500;11.188;2023-02-26T01:02:57;65.60;;;33.33;;
32864;SDS011;19219;44.500;11.188;2023-02-26T01:05:23;70.40;;;35.28;;
32864;SDS011;19219;44.500;11.188;2023-02-26T01:08:07;70.82;;;31.70;;
32864;SDS011;19219;44.500;11.188;2023-02-26T01:10:38;61.78;;;33.22;;
32864;SDS011;19219;44.500;11.188;2023-02-26T01:13:05;68.10;;;33.75;;
32864;SDS011;19219;44.500;11.188;2023-02-26T01:15:31;68.28;;;34.45;;
32864;SDS011;19219;44.500;11.188;2023-02-26T01:18:16;68.15;;;33.08;;
32864;SDS011;19219;44.500;11.188;2023-02-26T01:20:48;66.80;;;33.50;;
32864;SDS011;19219;44.500;11.188;2023-02-26T01:23:20;65.18;;;32.88;;
32864;SDS011;19219;44.500;11.188;2023-02-26T01:25:54;69.93;;;33.47;;
32864;SDS011;19219;44.500;11.188;2023-02-26T01:28:23;66.85;;;32.53;;
32864;SDS011;19219;44.500;11.188;2023-02-26T01:30:50;61.50;;;30.65;;
32864;SDS011;19219;44.500;11.188;2023-02-26T01:41:12;73.22;;;37.53;;
32864;SDS011;19219;44.500;11.188;2023-02-26T01:44:09;81.13;;;38.75;;
32864;SDS011;19219;44.500;11.188;2023-02-26T01:49:28;89.15;;;44.22;;
32864;SDS011;19219;44.500;11.188;2023-02-26T01:54:22;87.78;;;43.45;;
32864;SDS011;19219;44.500;11.188;2023-02-26T01:56:55;96.85;;;46.35;;
32864;SDS011;19219;44.500;11.188;2023-02-26T01:59:33;90.75;;;47.25;;
32864;SDS011;19219;44.500;11.188;2023-02-26T02:02:09;95.47;;;45.78;;
32864;SDS011;19219;44.500;11.188;2023-02-26T02:04:36;90.35;;;47.80;;
32864;SDS011;19219;44.500;11.188;2023-02-26T02:07:04;86.13;;;46.08;;
32864;SDS011;19219;44.500;11.188;2023-02-26T02:09:30;97.90;;;46.53;;
32864;SDS011;19219;44.500;11.188;2023-02-26T02:12:07;92.72;;;47.92;;
32864;SDS011;19219;44.500;11.188;2023-02-26T02:14:50;94.43;;;45.85;;
32864;SDS011;19219;44.500;11.188;2023-02-26T02:19:52;96.72;;;48.25;;
32864;SDS011;19219;44.500;11.188;2023-02-26T02:31:25;92.05;;;49.58;;
32864;SDS011;19219;44.500;11.188;2023-02-26T02:34:00;92.13;;;45.78;;
32864;SDS011;19219;44.500;11.188;2023-02-26T02:36:35;89.25;;;47.80;;
32864;SDS011;19219;44.500;11.188;2023-02-26T02:39:05;100.43;;;51.95;;
32864;SDS011;19219;44.500;11.188;2023-02-26T02:41:39;96.13;;;51.05;;
32864;SDS011;19219;44.500;11.188;2023-02-26T02:44:11;106.75;;;51.53;;
32864;SDS011;19219;44.500;11.188;2023-02-26T02:46:42;97.40;;;50.03;;
32864;SDS011;19219;44.500;11.188;2023-02-26T02:49:24;98.28;;;52.22;;
32864;SDS011;19219;44.500;11.188;2023-02-26T02:52:00;89.55;;;46.78;;
32864;SDS011;19219;44.500;11.188;2023-02-26T02:57:14;102.55;;;52.00;;
32864;SDS011;19219;44.500;11.188;2023-02-26T02:59:47;100.47;;;53.60;;
32864;SDS011;19219;44.500;11.188;2023-02-26T03:04:51;96.32;;;48.80;;
32864;SDS011;19219;44.500;11.188;2023-02-26T03:07:17;95.53;;;51.20;;
32864;SDS011;19219;44.500;11.188;2023-02-26T03:09:42;96.78;;;50.22;;
32864;SDS011;19219;44.500;11.188;2023-02-26T03:12:09;102.47;;;51.58;;
32864;SDS011;19219;44.500;11.188;2023-02-26T03:14:35;105.72;;;52.00;;
32864;SDS011;19219;44.500;11.188;2023-02-26T03:17:05;112.32;;;53.45;;
32864;SDS011;19219;44.500;11.188;2023-02-26T03:33:20;110.93;;;51.40;;
32864;SDS011;19219;44.500;11.188;2023-02-26T03:36:02;104.20;;;54.35;;
32864;SDS011;19219;44.500;11.188;2023-02-26T03:38:57;97.60;;;50.90;;
32864;SDS011;19219;44.500;11.188;2023-02-26T03:41:35;54.42;;;26.75;;
32864;SDS011;19219;44.500;11.188;2023-02-26T03:44:08;30.10;;;14.18;;
32864;SDS011;19219;44.500;11.188;2023-02-26T03:47:06;15.57;;;8.32;;
32864;SDS011;19219;44.500;11.188;2023-02-26T03:49:55;15.32;;;6.80;;
32864;SDS011;19219;44.500;11.188;2023-02-26T03:52:22;5.68;;;3.80;;
32864;SDS011;19219;44.500;11.188;2023-02-26T03:54:54;8.80;;;2.78;;
32864;SDS011;19219;44.500;11.188;2023-02-26T03:57:27;4.60;;;1.83;;
32864;SDS011;19219;44.500;11.188;2023-02-26T03:59:53;5.57;;;2.10;;
32864;SDS011;19219;44.500;11.188;2023-02-26T04:02:26;7.88;;;2.78;;
32864;SDS011;19219;44.500;11.188;2023-02-26T04:05:00;5.05;;;2.13;;
32864;SDS011;19219;44.500;11.188;2023-02-26T04:07:31;2.40;;;2.03;;
32864;SDS011;19219;44.500;11.188;2023-02-26T04:09:57;4.22;;;2.45;;
32864;SDS011;19219;44.500;11.188;2023-02-26T04:12:24;7.93;;;2.33;;
32864;SDS011;19219;44.500;11.188;2023-02-26T04:14:53;4.45;;;1.77;;
32864;SDS011;19219;44.500;11.188;2023-02-26T04:17:19;6.25;;;2.25;;
32864;SDS011;19219;44.500;11.188;2023-02-26T04:19:45;2.67;;;1.60;;
32864;SDS011;19219;44.500;11.188;2023-02-26T04:22:10;1.45;;;1.27;;
32864;SDS011;19219;44.500;11.188;2023-02-26T04:24:36;2.53;;;1.40;;
32864;SDS011;19219;44.500;11.188;2023-02-26T04:27:02;2.13;;;0.93;;
32864;SDS011;19219;44.500;11.188;2023-02-26T04:29:28;2.58;;;1.50;;
32864;SDS011;19219;44.500;11.188;2023-02-26T04:31:53;1.63;;;1.38;;
32864;SDS011;19219;44.500;11.188;2023-02-26T04:34:19;0.93;;;0.90;;
32864;SDS011;19219;44.500;11.188;2023-02-26T04:36:45;3.70;;;1.05;;
32864;SDS011;19219;44.500;11.188;2023-02-26T04:39:10;2.25;;;1.13;;
32864;SDS011;19219;44.500;11.188;2023-02-26T04:41:36;1.75;;;1.60;;
32864;SDS011;19219;44.500;11.188;2023-02-26T04:44:03;1.67;;;1.33;;
32864;SDS011;19219;44.500;11.188;2023-02-26T04:46:29;2.63;;;1.30;;
32864;SDS011;19219;44.500;11.188;2023-02-26T04:48:55;3.83;;;1.60;;
32864;SDS011;19219;44.500;11.188;2023-02-26T04:51:21;2.30;;;1.15;;
32864;SDS011;19219;44.500;11.188;2023-02-26T04:53:47;2.00;;;1.25;;
32864;SDS011;19219;44.500;11.188;2023-02-26T04:56:12;0.80;;;0.80;;
32864;SDS011;19219;44.500;11.188;2023-02-26T04:58:38;0.90;;;0.90;;
32864;SDS011;19219;44.500;11.188;2023-02-26T05:01:04;3.08;;;1.10;;
32864;SDS011;19219;44.500;11.188;2023-02-26T05:03:29;1.60;;;1.10;;
32864;SDS011;19219;44.500;11.188;2023-02-26T05:05:55;3.15;;;1.30;;
32864;SDS011;19219;44.500;11.188;2023-02-26T05:08:21;0.90;;;0.90;;
32864;SDS011;19219;44.500;11.188;2023-02-26T05:10:47;2.95;;;1.05;;
32864;SDS011;19219;44.500;11.188;2023-02-26T05:13:15;2.28;;;1.02;;
32864;SDS011;19219;44.500;11.188;2023-02-26T05:15:40;2.05;;;1.25;;
32864;SDS011;19219;44.500;11.188;2023-02-26T05:18:06;2.25;;;1.50;;
32864;SDS011;19219;44.500;11.188;2023-02-26T05:20:31;4.55;;;1.40;;
32864;SDS011;19219;44.500;11.188;2023-02-26T05:22:57;4.97;;;1.40;;
32864;SDS011;19219;44.500;11.188;2023-02-26T05:25:23;1.15;;;1.10;;
32864;SDS011;19219;44.500;11.188;2023-02-26T05:27:49;0.82;;;0.82;;
32864;SDS011;19219;44.500;11.188;2023-02-26T05:30:15;0.98;;;0.70;;
32864;SDS011;19219;44.500;11.188;2023-02-26T05:32:41;3.50;;;0.93;;
32864;SDS011;19219;44.500;11.188;2023-02-26T05:35:07;0.98;;;0.93;;
32864;SDS011;19219;44.500;11.188;2023-02-26T05:37:34;0.95;;;0.90;;
32864;SDS011;19219;44.500;11.188;2023-02-26T05:40:00;2.42;;;1.20;;
32864;SDS011;19219;44.500;11.188;2023-02-26T05:42:26;4.35;;;1.13;;
32864;SDS011;19219;44.500;11.188;2023-02-26T05:44:51;2.13;;;0.60;;
32864;SDS011;19219;44.500;11.188;2023-02-26T05:47:17;3.05;;;1.00;;
32864;SDS011;19219;44.500;11.188;2023-02-26T05:49:43;1.30;;;1.05;;
32864;SDS011;19219;44.500;11.188;2023-02-26T05:52:08;3.05;;;0.95;;
32864;SDS011;19219;44.500;11.188;2023-02-26T05:54:34;2.28;;;1.00;;
32864;SDS011;19219;44.500;11.188;2023-02-26T05:57:00;2.70;;;1.30;;
32864;SDS011;19219;44.500;11.188;2023-02-26T05:59:25;2.80;;;1.00;;
32864;SDS011;19219;44.500;11.188;2023-02-26T06:01:51;4.50;;;1.33;;
32864;SDS011;19219;44.500;11.188;2023-02-26T06:04:17;3.58;;;1.38;;
32864;SDS011;19219;44.500;11.188;2023-02-26T06:06:43;1.73;;;0.80;;
32864;SDS011;19219;44.500;11.188;2023-02-26T06:09:08;1.80;;;0.90;;
32864;SDS011;19219;44.500;11.188;2023-02-26T06:11:34;1.10;;;0.70;;
32864;SDS011;19219;44.500;11.188;2023-02-26T06:14:00;2.22;;;0.90;;
32864;SDS011;19219;44.500;11.188;2023-02-26T06:16:26;5.10;;;1.27;;
32864;SDS011;19219;44.500;11.188;2023-02-26T06:18:52;2.17;;;1.40;;
32864;SDS011;19219;44.500;11.188;2023-02-26T06:21:18;4.43;;;1.17;;
32864;SDS011;19219;44.500;11.188;2023-02-26T06:23:43;1.73;;;0.80;;
32864;SDS011;19219;44.500;11.188;2023-02-26T06:26:09;6.25;;;1.23;;
32864;SDS011;19219;44.500;11.188;2023-02-26T06:28:35;2.78;;;0.90;;
32864;SDS011;19219;44.500;11.188;2023-02-26T06:31:01;3.95;;;1.55;;
32864;SDS011;19219;44.500;11.188;2023-02-26T06:33:27;9.15;;;1.45;;
32864;SDS011;19219;44.500;11.188;2023-02-26T06:35:53;24.25;;;11.95;;
32864;SDS011;19219;44.500;11.188;2023-02-26T06:38:20;7.40;;;1.98;;
32864;SDS011;19219;44.500;11.188;2023-02-26T06:40:46;4.20;;;2.65;;
32864;SDS011;19219;44.500;11.188;2023-02-26T06:43:12;7.72;;;1.75;;
32864;SDS011;19219;44.500;11.188;2023-02-26T06:45:37;4.43;;;1.83;;
32864;SDS011;19219;44.500;11.188;2023-02-26T06:48:03;9.98;;;2.15;;
32864;SDS011;19219;44.500;11.188;2023-02-26T06:50:29;6.10;;;1.77;;
32864;SDS011;19219;44.500;11.188;2023-02-26T06:52:55;4.03;;;1.15;;
32864;SDS011;19219;44.500;11.188;2023-02-26T06:55:21;7.43;;;1.58;;
32864;SDS011;19219;44.500;11.188;2023-02-26T06:57:51;4.43;;;1.40;;
32864;SDS011;19219;44.500;11.188;2023-02-26T07:00:21;7.45;;;1.90;;
32864;SDS011;19219;44.500;11.188;2023-02-26T07:02:47;9.25;;;2.50;;
32864;SDS011;19219;44.500;11.188;2023-02-26T07:05:13;7.93;;;2.45;;
32864;SDS011;19219;44.500;11.188;2023-02-26T07:07:39;10.88;;;3.25;;
32864;SDS011;19219;44.500;11.188;2023-02-26T07:10:05;6.80;;;1.85;;
32864;SDS011;19219;44.500;11.188;2023-02-26T07:12:31;3.97;;;1.10;;
32864;SDS011;19219;44.500;11.188;2023-02-26T07:14:57;2.58;;;1.33;;
32864;SDS011;19219;44.500;11.188;2023-02-26T07:17:22;4.28;;;1.40;;
32864;SDS011;19219;44.500;11.188;2023-02-26T07:19:49;4.47;;;1.35;;
32864;SDS011;19219;44.500;11.188;2023-02-26T07:22:16;2.25;;;1.20;;
32864;SDS011;19219;44.500;11.188;2023-02-26T07:24:43;7.47;;;1.83;;
32864;SDS011;19219;44.500;11.188;2023-02-26T07:27:09;6.40;;;1.65;;
32864;SDS011;19219;44.500;11.188;2023-02-26T07:29:35;5.57;;;2.00;;
32864;SDS011;19219;44.500;11.188;2023-02-26T07:32:01;5.72;;;2.00;;
32864;SDS011;19219;44.500;11.188;2023-02-26T07:34:28;4.55;;;1.38;;
32864;SDS011;19219;44.500;11.188;2023-02-26T07:36:53;1.60;;;1.00;;
32864;SDS011;19219;44.500;11.188;2023-02-26T07:39:19;2.28;;;1.00;;
32864;SDS011;19219;44.500;11.188;2023-02-26T07:41:45;1.10;;;1.00;;
32864;SDS011;19219;44.500;11.188;2023-02-26T07:44:10;3.90;;;1.25;;
32864;SDS011;19219;44.500;11.188;2023-02-26T07:46:36;2.40;;;1.75;;
32864;SDS011;19219;44.500;11.188;2023-02-26T07:49:02;18.83;;;8.23;;
32864;SDS011;19219;44.500;11.188;2023-02-26T07:51:28;10.07;;;2.50;;
32864;SDS011;19219;44.500;11.188;2023-02-26T07:53:53;8.95;;;2.20;;
32864;SDS011;19219;44.500;11.188;2023-02-26T07:56:19;6.40;;;1.75;;
32864;SDS011;19219;44.500;11.188;2023-02-26T07:58:45;8.63;;;1.70;;
32864;SDS011;19219;44.500;11.188;2023-02-26T08:01:10;4.00;;;1.85;;
32864;SDS011;19219;44.500;11.188;2023-02-26T08:03:36;6.55;;;3.05;;
32864;SDS011;19219;44.500;11.188;2023-02-26T08:06:02;9.65;;;2.70;;
32864;SDS011;19219;44.500;11.188;2023-02-26T08:08:29;7.50;;;3.38;;
32864;SDS011;19219;44.500;11.188;2023-02-26T08:10:55;14.23;;;5.32;;
32864;SDS011;19219;44.500;11.188;2023-02-26T08:13:23;3.67;;;2.78;;
32864;SDS011;19219;44.500;11.188;2023-02-26T08:15:49;7.20;;;1.98;;
32864;SDS011;19219;44.500;11.188;2023-02-26T08:18:15;5.53;;;1.52;;
32864;SDS011;19219;44.500;11.188;2023-02-26T08:20:40;2.05;;;1.10;;
32864;SDS011;19219;44.500;11.188;2023-02-26T08:23:06;5.15;;;1.40;;
32864;SDS011;19219;44.500;11.188;2023-02-26T08:25:32;6.68;;;1.65;;
32864;SDS011;19219;44.500;11.188;2023-02-26T08:27:58;9.05;;;2.35;;
32864;SDS011;19219;44.500;11.188;2023-02-26T08:30:25;5.55;;;1.77;;
32864;SDS011;19219;44.500;11.188;2023-02-26T08:32:51;5.57;;;1.40;;
32864;SDS011;19219;44.500;11.188;2023-02-26T08:35:16;4.82;;;2.70;;
32864;SDS011;19219;44.500;11.188;2023-02-26T08:37:42;6.85;;;3.45;;
32864;SDS011;19219;44.500;11.188;2023-02-26T08:40:08;8.43;;;1.58;;
32864;SDS011;19219;44.500;11.188;2023-02-26T08:42:35;4.38;;;2.40;;
32864;SDS011;19219;44.500;11.188;2023-02-26T08:45:01;4.88;;;1.75;;
32864;SDS011;19219;44.500;11.188;2023-02-26T08:47:27;7.10;;;1.67;;
32864;SDS011;19219;44.500;11.188;2023-02-26T08:49:52;6.15;;;1.27;;
32864;SDS011;19219;44.500;11.188;2023-02-26T08:52:19;5.20;;;1.63;;
32864;SDS011;19219;44.500;11.188;2023-02-26T08:54:45;4.47;;;1.60;;
32864;SDS011;19219;44.500;11.188;2023-02-26T08:57:10;4.00;;;1.10;;
32864;SDS011;19219;44.500;11.188;2023-02-26T08:59:37;6.57;;;1.88;;
32864;SDS011;19219;44.500;11.188;2023-02-26T09:02:02;3.25;;;0.85;;
32864;SDS011;19219;44.500;11.188;2023-02-26T09:04:28;5.40;;;1.92;;
32864;SDS011;19219;44.500;11.188;2023-02-26T09:06:54;4.97;;;1.30;;
32864;SDS011;19219;44.500;11.188;2023-02-26T09:09:19;5.45;;;2.28;;
32864;SDS011;19219;44.500;11.188;2023-02-26T09:11:45;5.55;;;2.30;;
32864;SDS011;19219;44.500;11.188;2023-02-26T09:14:11;5.22;;;2.63;;
32864;SDS011;19219;44.500;11.188;2023-02-26T09:16:37;7.78;;;1.65;;
32864;SDS011;19219;44.500;11.188;2023-02-26T09:19:03;1.85;;;0.98;;
32864;SDS011;19219;44.500;11.188;2023-02-26T09:21:30;6.03;;;1.63;;
32864;SDS011;19219;44.500;11.188;2023-02-26T09:23:56;3.15;;;1.80;;
32864;SDS011;19219;44.500;11.188;2023-02-26T09:26:22;6.00;;;2.08;;
32864;SDS011;19219;44.500;11.188;2023-02-26T09:28:48;7.35;;;2.08;;
32864;SDS011;19219;44.500;11.188;2023-02-26T09:31:13;11.18;;;3.67;;
32864;SDS011;19219;44.500;11.188;2023-02-26T09:33:39;4.28;;;1.95;;
32864;SDS011;19219;44.500;11.188;2023-02-26T09:36:05;3.78;;;2.45;;
32864;SDS011;19219;44.500;11.188;2023-02-26T09:38:31;1.40;;;1.13;;
32864;SDS011;19219;44.500;11.188;2023-02-26T09:46:32;2.73;;;1.03;;
32864;SDS011;19219;44.500;11.188;2023-02-26T09:49:18;2.83;;;1.50;;
32864;SDS011;19219;44.500;11.188;2023-02-26T09:51:48;1.95;;;1.30;;
32864;SDS011;19219;44.500;11.188;2023-02-26T09:54:20;1.98;;;1.48;;
32864;SDS011;19219;44.500;11.188;2023-02-26T09:56:48;5.25;;;1.55;;
32864;SDS011;19219;44.500;11.188;2023-02-26T09:59:16;4.15;;;1.00;;
32864;SDS011;19219;44.500;11.188;2023-02-26T10:12:30;7.03;;;1.02;;
32864;SDS011;19219;44.500;11.188;2023-02-26T10:17:42;3.63;;;1.63;;
32864;SDS011;19219;44.500;11.188;2023-02-26T10:20:26;2.40;;;1.40;;
32864;SDS011;19219;44.500;11.188;2023-02-26T10:25:48;5.25;;;1.40;;
32864;SDS011;19219;44.500;11.188;2023-02-26T10:31:21;4.40;;;1.23;;
32864;SDS011;19219;44.500;11.188;2023-02-26T10:39:49;4.90;;;1.95;;
32864;SDS011;19219;44.500;11.188;2023-02-26T10:42:26;8.23;;;1.52;;
32864;SDS011;19219;44.500;11.188;2023-02-26T10:50:13;4.32;;;1.85;;
32864;SDS011;19219;44.500;11.188;2023-02-26T10:52:42;5.10;;;1.73;;
32864;SDS011;19219;44.500;11.188;2023-02-26T11:00:22;6.18;;;1.77;;
32864;SDS011;19219;44.500;11.188;2023-02-26T11:02:49;4.05;;;1.90;;
32864;SDS011;19219;44.500;11.188;2023-02-26T11:05:21;5.65;;;1.88;;
32864;SDS011;19219;44.500;11.188;2023-02-26T11:07:49;6.18;;;1.67;;
32864;SDS011;19219;44.500;11.188;2023-02-26T11:10:20;5.13;;;1.90;;
32864;SDS011;19219;44.500;11.188;2023-02-26T11:12:51;2.05;;;1.63;;
32864;SDS011;19219;44.500;11.188;2023-02-26T11:15:21;8.23;;;2.30;;
32864;SDS011;19219;44.500;11.188;2023-02-26T11:17:52;6.70;;;1.75;;
32864;SDS011;19219;44.500;11.188;2023-02-26T11:22:57;9.43;;;2.10;;
32864;SDS011;19219;44.500;11.188;2023-02-26T11:25:26;2.15;;;1.40;;
32864;SDS011;19219;44.500;11.188;2023-02-26T11:27:57;5.57;;;2.30;;
32864;SDS011;19219;44.500;11.188;2023-02-26T11:30:32;8.82;;;2.42;;
32864;SDS011;19219;44.500;11.188;2023-02-26T11:33:21;11.13;;;2.42;;
32864;SDS011;19219;44.500;11.188;2023-02-26T11:35:51;7.03;;;3.03;;
32864;SDS011;19219;44.500;11.188;2023-02-26T11:38:18;11.95;;;3.20;;
32864;SDS011;19219;44.500;11.188;2023-02-26T11:40:48;15.43;;;2.83;;
32864;SDS011;19219;44.500;11.188;2023-02-26T11:43:18;7.32;;;2.05;;
32864;SDS011;19219;44.500;11.188;2023-02-26T11:45:47;5.28;;;2.08;;
32864;SDS011;19219;44.500;11.188;2023-02-26T11:48:23;9.32;;;1.88;;
32864;SDS011;19219;44.500;11.188;2023-02-26T11:50:58;11.32;;;2.55;;
32864;SDS011;19219;44.500;11.188;2023-02-26T11:53:34;8.85;;;2.17;;
32864;SDS011;19219;44.500;11.188;2023-02-26T11:56:31;11.57;;;2.40;;
32864;SDS011;19219;44.500;11.188;2023-02-26T11:59:19;6.90;;;3.55;;
32864;SDS011;19219;44.500;11.188;2023-02-26T12:01:47;10.20;;;2.08;;
32864;SDS011;19219;44.500;11.188;2023-02-26T12:04:17;10.05;;;2.50;;
32864;SDS011;19219;44.500;11.188;2023-02-26T12:06:45;7.00;;;2.50;;
32864;SDS011;19219;44.500;11.188;2023-02-26T12:09:14;5.30;;;2.05;;
32864;SDS011;19219;44.500;11.188;2023-02-26T12:11:49;9.57;;;2.25;;
32864;SDS011;19219;44.500;11.188;2023-02-26T12:25:19;5.55;;;2.40;;
32864;SDS011;19219;44.500;11.188;2023-02-26T12:35:38;3.05;;;2.63;;
32864;SDS011;19219;44.500;11.188;2023-02-26T12:43:42;6.65;;;2.28;;
32864;SDS011;19219;44.500;11.188;2023-02-26T13:14:11;13.40;;;3.97;;
32864;SDS011;19219;44.500;11.188;2023-02-26T13:21:49;13.43;;;4.60;;
32864;SDS011;19219;44.500;11.188;2023-02-26T13:24:21;9.02;;;3.10;;
32864;SDS011;19219;44.500;11.188;2023-02-26T13:26:51;10.48;;;4.32;;
32864;SDS011;19219;44.500;11.188;2023-02-26T13:29:19;17.48;;;4.70;;
32864;SDS011;19219;44.500;11.188;2023-02-26T13:31:58;10.57;;;3.63;;
32864;SDS011;19219;44.500;11.188;2023-02-26T13:37:23;11.27;;;3.17;;
32864;SDS011;19219;44.500;11.188;2023-02-26T13:51:45;15.68;;;2.72;;
32864;SDS011;19219;44.500;11.188;2023-02-26T14:06:59;10.70;;;3.83;;
32864;SDS011;19219;44.500;11.188;2023-02-26T14:12:41;6.35;;;2.40;;
32864;SDS011;19219;44.500;11.188;2023-02-26T14:22:49;28.48;;;9.00;;
32864;SDS011;19219;44.500;11.188;2023-02-26T14:25:28;14.38;;;5.30;;
32864;SDS011;19219;44.500;11.188;2023-02-26T14:28:18;18.20;;;7.35;;
32864;SDS011;19219;44.500;11.188;2023-02-26T14:30:52;6.45;;;3.95;;
32864;SDS011;19219;44.500;11.188;2023-02-26T14:33:28;10.73;;;3.75;;
32864;SDS011;19219;44.500;11.188;2023-02-26T14:35:55;10.70;;;4.00;;
32864;SDS011;19219;44.500;11.188;2023-02-26T14:38:26;18.98;;;8.38;;
32864;SDS011;19219;44.500;11.188;2023-02-26T14:43:59;22.98;;;6.30;;
32864;SDS011;19219;44.500;11.188;2023-02-26T14:46:46;20.05;;;6.57;;
32864;SDS011;19219;44.500;11.188;2023-02-26T14:49:23;10.50;;;4.53;;
32864;SDS011;19219;44.500;11.188;2023-02-26T15:06:28;14.50;;;3.88;;
32864;SDS011;19219;44.500;11.188;2023-02-26T15:14:52;12.55;;;6.13;;
32864;SDS011;19219;44.500;11.188;2023-02-26T15:20:24;10.30;;;4.28;;
32864;SDS011;19219;44.500;11.188;2023-02-26T15:25:46;8.13;;;3.92;;
32864;SDS011;19219;44.500;11.188;2023-02-26T15:28:24;5.78;;;3.08;;
32864;SDS011;19219;44.500;11.188;2023-02-26T15:30:55;13.75;;;5.28;;
32864;SDS011;19219;44.500;11.188;2023-02-26T15:33:24;8.30;;;4.22;;
32864;SDS011;19219;44.500;11.188;2023-02-26T15:35:50;12.93;;;5.50;;
32864;SDS011;19219;44.500;11.188;2023-02-26T15:38:17;9.15;;;4.35;;
32864;SDS011;19219;44.500;11.188;2023-02-26T15:40:43;28.92;;;15.18;;
32864;SDS011;19219;44.500;11.188;2023-02-26T15:43:11;13.60;;;8.35;;
32864;SDS011;19219;44.500;11.188;2023-02-26T15:45:44;8.38;;;6.30;;
32864;SDS011;19219;44.500;11.188;2023-02-26T15:48:16;10.18;;;5.05;;
32864;SDS011;19219;44.500;11.188;2023-02-26T15:50:46;10.70;;;4.45;;
32864;SDS011;19219;44.500;11.188;2023-02-26T15:53:36;10.90;;;3.88;;
32864;SDS011;19219;44.500;11.188;2023-02-26T15:56:07;7.68;;;4.40;;
32864;SDS011;19219;44.500;11.188;2023-02-26T15:58:40;10.90;;;7.22;;
32864;SDS011;19219;44.500;11.188;2023-02-26T16:01:28;14.77;;;5.55;;
32864;SDS011;19219;44.500;11.188;2023-02-26T16:03:57;5.25;;;3.72;;
32864;SDS011;19219;44.500;11.188;2023-02-26T16:06:35;9.43;;;4.65;;
32864;SDS011;19219;44.500;11.188;2023-02-26T16:09:06;11.90;;;5.00;;
32864;SDS011;19219;44.500;11.188;2023-02-26T16:11:40;9.30;;;5.03;;
32864;SDS011;19219;44.500;11.188;2023-02-26T16:14:07;6.30;;;3.72;;
32864;SDS011;19219;44.500;11.188;2023-02-26T16:16:42;7.57;;;4.43;;
32864;SDS011;19219;44.500;11.188;2023-02-26T16:19:14;6.10;;;3.28;;
32864;SDS011;19219;44.500;11.188;2023-02-26T16:21:43;9.95;;;4.15;;
32864;SDS011;19219;44.500;11.188;2023-02-26T16:24:13;6.50;;;4.68;;
32864;SDS011;19219;44.500;11.188;2023-02-26T16:26:43;12.10;;;3.58;;
32864;SDS011;19219;44.500;11.188;2023-02-26T16:29:16;10.45;;;4.70;;
32864;SDS011;19219;44.500;11.188;2023-02-26T16:31:46;11.40;;;4.88;;
32864;SDS011;19219;44.500;11.188;2023-02-26T16:37:45;6.13;;;4.55;;
32864;SDS011;19219;44.500;11.188;2023-02-26T16:39:55;8.65;;;4.80;;
32864;SDS011;19219;44.500;11.188;2023-02-26T16:45:02;8.20;;;4.78;;
32864;SDS011;19219;44.500;11.188;2023-02-26T16:47:38;8.77;;;4.70;;
32864;SDS011;19219;44.500;11.188;2023-02-26T16:50:16;35.20;;;17.75;;
32864;SDS011;19219;44.500;11.188;2023-02-26T16:52:45;9.93;;;5.53;;
32864;SDS011;19219;44.500;11.188;2023-02-26T16:55:30;7.50;;;3.33;;
32864;SDS011;19219;44.500;11.188;2023-02-26T16:57:59;7.38;;;3.92;;
32864;SDS011;19219;44.500;11.188;2023-02-26T17:00:27;24.13;;;10.15;;
32864;SDS011;19219;44.500;11.188;2023-02-26T17:03:13;13.35;;;6.10;;
32864;SDS011;19219;44.500;11.188;2023-02-26T17:05:52;9.18;;;4.57;;
32864;SDS011;19219;44.500;11.188;2023-02-26T17:08:29;10.25;;;4.28;;
32864;SDS011;19219;44.500;11.188;2023-02-26T17:11:06;8.35;;;4.72;;
32864;SDS011;19219;44.500;11.188;2023-02-26T17:13:42;7.97;;;4.45;;
32864;SDS011;19219;44.500;11.188;2023-02-26T17:16:09;17.15;;;6.80;;
32864;SDS011;19219;44.500;11.188;2023-02-26T17:18:36;10.38;;;4.68;;
32864;SDS011;19219;44.500;11.188;2023-02-26T17:21:02;9.00;;;4.95;;
32864;SDS011;19219;44.500;11.188;2023-02-26T17:23:30;12.75;;;6.57;;
32864;SDS011;19219;44.500;11.188;2023-02-26T17:26:00;7.95;;;5.40;;
32864;SDS011;19219;44.500;11.188;2023-02-26T17:28:29;8.13;;;5.25;;
32864;SDS011;19219;44.500;11.188;2023-02-26T17:30:59;6.57;;;3.63;;
32864;SDS011;19219;44.500;11.188;2023-02-26T17:33:25;9.82;;;4.93;;
32864;SDS011;19219;44.500;11.188;2023-02-26T17:35:51;14.30;;;4.28;;
32864;SDS011;19219;44.500;11.188;2023-02-26T17:38:21;11.52;;;4.22;;
32864;SDS011;19219;44.500;11.188;2023-02-26T17:40:47;10.00;;;4.93;;
32864;SDS011;19219;44.500;11.188;2023-02-26T17:43:13;14.07;;;4.22;;
32864;SDS011;19219;44.500;11.188;2023-02-26T17:45:39;17.23;;;5.30;;
32864;SDS011;19219;44.500;11.188;2023-02-26T17:48:05;7.25;;;3.53;;
32864;SDS011;19219;44.500;11.188;2023-02-26T17:53:01;8.20;;;2.95;;
32864;SDS011;19219;44.500;11.188;2023-02-26T17:55:27;11.20;;;4.53;;
32864;SDS011;19219;44.500;11.188;2023-02-26T17:57:54;6.50;;;3.72;;
32864;SDS011;19219;44.500;11.188;2023-02-26T18:00:20;14.15;;;4.10;;
32864;SDS011;19219;44.500;11.188;2023-02-26T18:02:47;11.68;;;4.53;;
32864;SDS011;19219;44.500;11.188;2023-02-26T18:05:12;10.20;;;4.72;;
32864;SDS011;19219;44.500;11.188;2023-02-26T18:07:38;9.05;;;4.65;;
32864;SDS011;19219;44.500;11.188;2023-02-26T18:10:04;8.98;;;3.90;;
32864;SDS011;19219;44.500;11.188;2023-02-26T18:12:31;8.18;;;4.20;;
32864;SDS011;19219;44.500;11.188;2023-02-26T18:14:56;8.88;;;3.33;;
32864;SDS011;19219;44.500;11.188;2023-02-26T18:17:23;18.08;;;8.38;;
32864;SDS011;19219;44.500;11.188;2023-02-26T18:19:51;12.95;;;5.57;;
32864;SDS011;19219;44.500;11.188;2023-02-26T18:22:19;10.75;;;5.05;;
32864;SDS011;19219;44.500;11.188;2023-02-26T18:24:49;20.88;;;8.40;;
32864;SDS011;19219;44.500;11.188;2023-02-26T18:27:16;8.98;;;4.05;;
32864;SDS011;19219;44.500;11.188;2023-02-26T18:29:45;8.15;;;4.38;;